Time;durP1;ratioP1;P1;durP2;ratioP2;P2;SDS_P1;SDS_P2;PMS_P1;PMS_P2;Temp;Humidity;BMP_temperature;BMP_pressure;BME280_temperature;BME280_humidity;BME280_pressure;Samples;Min_cycle;Max_cycle;Signal;HPM_P1;HPM_P2
2022/03/17 00:01:39;;;;;;;;;;;9.20;70.30;;;;;;2379689;56;20124;-75
2022/03/17 00:04:05;;;;;;;;;;;9.20;70.20;;;;;;2379233;56;20316;-75
2022/03/17 00:06:33;;;;;;;;;;;9.20;70.30;;;;;;2378677;56;20109;-75
2022/03/17 00:09:00;;;;;;;;;;;9.20;70.30;;;;;;2379634;56;20337;-75
2022/03/17 00:11:28;;;;;;;;;;;9.20;70.90;;;;;;2379955;56;20153;-75
2022/03/17 00:13:54;;;;;;;;;;;9.20;70.40;;;;;;2633787;52;20081;-75
2022/03/17 00:16:21;;;;;;;;;;;9.10;70.50;;;;;;2379985;56;20129;-75
2022/03/17 00:18:47;;;;;;;;;;;9.10;70.70;;;;;;2379637;56;20193;-75
2022/03/17 00:23:50;;;;;;;;;;;9.10;70.90;;;;;;2358725;57;20061;-74
2022/03/17 00:26:17;;;;;;;;;;;9.10;70.70;;;;;;2378258;56;20053;-75
2022/03/17 00:28:44;;;;;;;;;;;9.10;70.70;;;;;;2378227;56;20092;-74
2022/03/17 00:31:10;;;;;;;;;;;9.00;70.70;;;;;;2371428;56;20086;-74
2022/03/17 00:33:37;;;;;;;;;;;9.10;70.70;;;;;;2350500;57;20329;-74
2022/03/17 00:36:03;;;;;;;;;;;9.10;70.70;;;;;;2350721;57;20077;-74
2022/03/17 00:38:30;;;;;;;;;;;9.10;70.70;;;;;;2598750;53;20118;-74
2022/03/17 00:40:57;;;;;;;;;;;9.10;70.90;;;;;;2598243;52;20122;-74
2022/03/17 00:43:24;;;;;;;;;;;9.10;70.80;;;;;;2351127;57;20094;-74
2022/03/17 00:45:51;;;;;;;;;;;9.10;70.70;;;;;;2350778;57;20137;-75
2022/03/17 00:48:17;;;;;;;;;;;9.10;70.50;;;;;;2350610;57;20328;-74
2022/03/17 00:50:44;;;;;;;;;;;9.10;70.50;;;;;;2350436;57;20083;-74
2022/03/17 00:53:10;;;;;;;;;;;9.10;70.60;;;;;;2350828;57;20114;-74
2022/03/17 00:55:37;;;;;;;;;;;9.00;70.70;;;;;;2350768;57;20055;-74
2022/03/17 00:58:04;;;;;;;;;;;9.00;70.90;;;;;;2350888;57;20344;-74
2022/03/17 01:00:30;;;;;;;;;;;9.00;70.80;;;;;;2350355;57;20079;-74
2022/03/17 01:02:57;;;;;;;;;;;9.00;70.80;;;;;;2350759;57;20071;-74
2022/03/17 01:05:24;;;;;;;;;;;9.00;70.70;;;;;;2350268;57;20094;-74
2022/03/17 01:07:52;;;;;;;;;;;9.00;70.80;;;;;;2350971;57;20317;-74
2022/03/17 01:10:19;;;;;;;;;;;9.00;70.70;;;;;;2350150;57;20077;-74
2022/03/17 01:12:46;;;;;;;;;;;9.00;70.70;;;;;;2350607;57;20384;-74
2022/03/17 01:15:13;;;;;;;;;;;9.00;70.70;;;;;;2350098;57;20138;-75
2022/03/17 01:17:39;;;;;;;;;;;9.00;70.50;;;;;;2350115;57;20119;-75
2022/03/17 01:20:07;;;;;;;;;;;9.00;70.40;;;;;;2350281;57;20113;-74
2022/03/17 01:22:34;;;;;;;;;;;9.00;70.50;;;;;;2349772;57;20082;-75
2022/03/17 01:25:01;;;;;;;;;;;9.00;70.90;;;;;;2349668;57;20142;-74
2022/03/17 01:27:29;;;;;;;;;;;8.90;70.70;;;;;;2350733;57;20142;-75
2022/03/17 01:29:55;;;;;;;;;;;8.90;70.80;;;;;;2350375;57;20142;-75
2022/03/17 01:32:22;;;;;;;;;;;8.90;70.90;;;;;;2350534;57;20086;-75
2022/03/17 01:34:49;;;;;;;;;;;8.90;70.90;;;;;;2350128;57;20113;-75
2022/03/17 01:37:16;;;;;;;;;;;8.90;71.10;;;;;;2348296;57;20154;-75
2022/03/17 01:39:42;;;;;;;;;;;8.90;71.10;;;;;;2594842;53;20095;-75
2022/03/17 01:42:10;;;;;;;;;;;8.90;71.30;;;;;;2596730;52;20118;-75
2022/03/17 01:44:37;;;;;;;;;;;8.90;71.30;;;;;;2350046;57;20130;-75
2022/03/17 01:49:49;;;;;;;;;;;8.90;71.10;;;;;;2349210;57;20090;-75
2022/03/17 01:52:15;;;;;;;;;;;8.90;71.00;;;;;;2597706;52;20114;-75
2022/03/17 01:54:42;;;;;;;;;;;8.90;71.30;;;;;;2349136;57;20067;-75
2022/03/17 01:57:09;;;;;;;;;;;8.90;71.10;;;;;;2347386;57;20094;-75
2022/03/17 01:59:37;;;;;;;;;;;8.90;71.30;;;;;;2349325;57;20122;-75
2022/03/17 02:02:05;;;;;;;;;;;8.90;71.30;;;;;;2349649;57;20178;-75
2022/03/17 02:04:31;;;;;;;;;;;8.90;71.40;;;;;;2597401;52;20090;-75
2022/03/17 02:06:58;;;;;;;;;;;8.90;71.50;;;;;;2349945;57;20098;-75
2022/03/17 02:09:26;;;;;;;;;;;8.90;71.30;;;;;;2349371;57;20324;-75
2022/03/17 02:14:46;;;;;;;;;;;8.90;71.60;;;;;;2347598;57;20066;-75
2022/03/17 02:17:13;;;;;;;;;;;8.90;71.70;;;;;;2349902;57;20073;-75
2022/03/17 02:19:40;;;;;;;;;;;8.80;71.80;;;;;;2597338;53;20066;-75
2022/03/17 02:22:07;;;;;;;;;;;8.80;71.90;;;;;;2349762;57;20333;-75
2022/03/17 02:27:19;;;;;;;;;;;8.80;71.90;;;;;;2422580;52;20322;-74
2022/03/17 02:29:46;;;;;;;;;;;8.80;71.60;;;;;;2375365;56;20081;-74
2022/03/17 02:32:12;;;;;;;;;;;8.80;71.50;;;;;;2374056;56;20061;-74
2022/03/17 02:34:39;;;;;;;;;;;8.80;72.50;;;;;;2374199;56;20096;-74
2022/03/17 02:37:05;;;;;;;;;;;8.80;71.90;;;;;;2374713;56;20216;-74
2022/03/17 02:39:32;;;;;;;;;;;8.80;71.90;;;;;;2374306;56;20354;-74
2022/03/17 02:42:00;;;;;;;;;;;8.80;72.10;;;;;;2374396;56;21011;-74
2022/03/17 02:44:26;;;;;;;;;;;8.80;72.00;;;;;;2374973;56;20061;-74
2022/03/17 02:46:53;;;;;;;;;;;8.80;71.90;;;;;;2372235;56;20057;-74
2022/03/17 02:49:19;;;;;;;;;;;8.80;72.70;;;;;;2374409;56;20065;-74
2022/03/17 02:51:46;;;;;;;;;;;8.80;71.80;;;;;;2463302;52;20755;-74
2022/03/17 02:54:12;;;;;;;;;;;8.80;71.90;;;;;;2374854;56;20068;-74
2022/03/17 02:56:39;;;;;;;;;;;8.80;72.80;;;;;;2374727;56;20168;-74
2022/03/17 02:59:05;;;;;;;;;;;8.70;72.30;;;;;;2374563;56;20064;-73
2022/03/17 03:01:32;;;;;;;;;;;8.70;72.20;;;;;;2373969;56;20071;-74
2022/03/17 03:03:58;;;;;;;;;;;8.80;71.90;;;;;;2374670;54;20127;-74
2022/03/17 03:06:25;;;;;;;;;;;8.80;71.80;;;;;;2408038;52;20088;-74
2022/03/17 03:08:51;;;;;;;;;;;8.70;71.80;;;;;;2559115;52;20069;-74
2022/03/17 03:11:18;;;;;;;;;;;8.80;72.20;;;;;;2374576;56;20247;-74
2022/03/17 03:13:44;;;;;;;;;;;8.70;72.40;;;;;;2374400;56;20124;-74
2022/03/17 03:16:13;;;;;;;;;;;8.70;72.50;;;;;;2374877;56;20080;-74
2022/03/17 03:18:40;;;;;;;;;;;8.70;72.20;;;;;;2599478;52;20143;-74
2022/03/17 03:23:42;;;;;;;;;;;8.80;72.10;;;;;;2358933;57;20128;-75
2022/03/17 03:26:09;;;;;;;;;;;8.80;72.30;;;;;;2378036;56;20121;-76
2022/03/17 03:28:35;;;;;;;;;;;8.80;72.40;;;;;;2378481;56;20085;-75
2022/03/17 03:31:01;;;;;;;;;;;8.80;72.30;;;;;;2382578;56;20096;-75
2022/03/17 03:33:28;;;;;;;;;;;8.80;72.20;;;;;;2406229;56;20064;-75
2022/03/17 03:38:39;;;;;;;;;;;8.80;72.50;;;;;;2406246;52;20098;-76
2022/03/17 03:41:06;;;;;;;;;;;8.80;72.60;;;;;;2406567;56;20084;-75
2022/03/17 03:43:32;;;;;;;;;;;8.80;72.70;;;;;;2406686;56;20072;-76
2022/03/17 03:45:59;;;;;;;;;;;8.80;72.50;;;;;;2406639;52;20127;-76
2022/03/17 03:48:25;;;;;;;;;;;8.70;72.80;;;;;;2406712;56;20064;-75
2022/03/17 03:50:52;;;;;;;;;;;8.70;72.70;;;;;;2476271;52;20080;-76
2022/03/17 03:53:18;;;;;;;;;;;8.80;72.80;;;;;;2406343;56;20331;-75
2022/03/17 03:55:45;;;;;;;;;;;8.80;72.70;;;;;;2407005;56;20113;-76
2022/03/17 03:58:12;;;;;;;;;;;8.80;72.50;;;;;;2405991;56;20218;-76
2022/03/17 04:00:41;;;;;;;;;;;8.80;72.40;;;;;;2571177;52;20112;-76
2022/03/17 04:03:08;;;;;;;;;;;8.80;72.80;;;;;;2406334;56;20247;-76
2022/03/17 04:05:34;;;;;;;;;;;8.80;72.70;;;;;;2406913;56;20072;-75
2022/03/17 04:08:01;;;;;;;;;;;8.80;73.00;;;;;;2406089;56;20330;-76
2022/03/17 04:10:27;;;;;;;;;;;8.80;73.10;;;;;;2429949;52;20072;-75
2022/03/17 04:12:54;;;;;;;;;;;8.80;73.00;;;;;;2629309;52;20096;-76
2022/03/17 04:15:20;;;;;;;;;;;8.80;72.90;;;;;;2406318;56;20164;-75
2022/03/17 04:17:49;;;;;;;;;;;8.80;73.20;;;;;;2406608;56;20135;-75
2022/03/17 04:20:15;;;;;;;;;;;8.80;72.40;;;;;;2406650;56;20398;-75
2022/03/17 04:22:42;;;;;;;;;;;8.80;72.70;;;;;;2405723;56;20061;-76
2022/03/17 04:25:09;;;;;;;;;;;8.90;72.60;;;;;;2406834;56;20318;-75
2022/03/17 04:27:36;;;;;;;;;;;8.90;72.80;;;;;;2407123;56;20511;-76
2022/03/17 04:30:03;;;;;;;;;;;8.90;72.90;;;;;;2406453;56;20116;-76
2022/03/17 04:32:29;;;;;;;;;;;8.90;72.90;;;;;;2406938;56;20128;-75
2022/03/17 04:34:55;;;;;;;;;;;8.90;72.90;;;;;;2406084;56;20073;-75
2022/03/17 04:37:22;;;;;;;;;;;8.90;72.80;;;;;;2404254;56;20072;-75
2022/03/17 04:39:48;;;;;;;;;;;9.00;72.70;;;;;;2404704;56;20133;-75
2022/03/17 04:42:15;;;;;;;;;;;9.00;72.70;;;;;;2405496;56;20080;-75
2022/03/17 04:44:42;;;;;;;;;;;9.00;72.60;;;;;;2494259;52;20148;-75
2022/03/17 04:47:08;;;;;;;;;;;9.00;72.30;;;;;;2406032;56;20064;-76
2022/03/17 04:49:34;;;;;;;;;;;9.00;72.30;;;;;;2405309;56;20374;-75
2022/03/17 04:52:01;;;;;;;;;;;9.00;72.40;;;;;;2406023;56;20121;-75
2022/03/17 04:54:27;;;;;;;;;;;9.00;72.40;;;;;;2405277;56;20096;-75
2022/03/17 04:56:54;;;;;;;;;;;9.00;71.40;;;;;;2404056;56;20179;-75
2022/03/17 04:59:21;;;;;;;;;;;9.00;71.90;;;;;;2404604;56;20168;-75
2022/03/17 05:01:48;;;;;;;;;;;9.10;71.30;;;;;;2445029;52;20123;-75
2022/03/17 05:04:14;;;;;;;;;;;9.10;71.70;;;;;;2405735;56;20080;-73
2022/03/17 05:06:41;;;;;;;;;;;9.10;71.80;;;;;;2405403;56;20131;-75
2022/03/17 05:09:08;;;;;;;;;;;9.10;71.80;;;;;;2405409;56;20072;-75
2022/03/17 05:11:34;;;;;;;;;;;9.10;72.60;;;;;;2405374;56;20076;-75
2022/03/17 05:14:01;;;;;;;;;;;9.10;72.30;;;;;;2403831;56;20080;-74
2022/03/17 05:16:28;;;;;;;;;;;9.10;72.50;;;;;;2405922;56;20139;-75
2022/03/17 05:18:54;;;;;;;;;;;9.10;72.30;;;;;;2405383;56;20072;-75
2022/03/17 05:21:21;;;;;;;;;;;9.10;72.40;;;;;;2405651;56;20069;-75
2022/03/17 05:23:47;;;;;;;;;;;9.10;72.30;;;;;;2405155;56;20148;-75
2022/03/17 05:26:14;;;;;;;;;;;9.10;72.10;;;;;;2404942;56;20088;-75
2022/03/17 05:28:41;;;;;;;;;;;9.20;71.80;;;;;;2405652;56;20113;-75
2022/03/17 05:31:07;;;;;;;;;;;9.10;71.70;;;;;;2403934;56;20107;-76
2022/03/17 05:33:34;;;;;;;;;;;9.10;71.90;;;;;;2404995;56;20286;-76
2022/03/17 05:36:02;;;;;;;;;;;9.20;71.60;;;;;;2405584;56;20120;-75
2022/03/17 05:38:29;;;;;;;;;;;9.20;71.60;;;;;;2405331;56;20135;-74
2022/03/17 05:40:56;;;;;;;;;;;9.20;71.30;;;;;;2404871;56;20076;-75
2022/03/17 05:43:23;;;;;;;;;;;9.20;71.20;;;;;;2405588;56;20109;-74
2022/03/17 05:45:50;;;;;;;;;;;9.20;70.70;;;;;;2405087;56;20116;-75
2022/03/17 05:48:17;;;;;;;;;;;9.20;70.60;;;;;;2404364;56;20128;-74
2022/03/17 05:50:45;;;;;;;;;;;9.20;71.20;;;;;;2403413;56;20133;-75
2022/03/17 05:53:11;;;;;;;;;;;9.20;70.90;;;;;;2405755;56;20187;-74
2022/03/17 05:55:38;;;;;;;;;;;9.20;70.90;;;;;;2405225;56;20060;-75
2022/03/17 05:58:07;;;;;;;;;;;9.20;71.00;;;;;;2405707;56;20116;-75
2022/03/17 06:00:33;;;;;;;;;;;9.20;71.00;;;;;;2404870;56;20060;-75
2022/03/17 06:03:00;;;;;;;;;;;9.20;70.60;;;;;;2405783;56;20112;-75
2022/03/17 06:05:28;;;;;;;;;;;9.20;70.40;;;;;;2405553;56;20080;-74
2022/03/17 06:07:57;;;;;;;;;;;9.30;70.30;;;;;;2406000;56;20139;-74
2022/03/17 06:10:24;;;;;;;;;;;9.30;70.30;;;;;;2405229;56;20064;-75
2022/03/17 06:12:51;;;;;;;;;;;9.40;70.90;;;;;;2405936;56;20076;-75
2022/03/17 06:15:18;;;;;;;;;;;9.40;70.10;;;;;;2405719;56;20149;-75
2022/03/17 06:17:47;;;;;;;;;;;9.40;69.90;;;;;;2405223;56;20112;-74
2022/03/17 06:20:15;;;;;;;;;;;9.40;70.00;;;;;;2405520;56;20116;-75
2022/03/17 06:22:42;;;;;;;;;;;9.40;70.00;;;;;;2405803;56;20335;-75
2022/03/17 06:25:10;;;;;;;;;;;9.50;70.00;;;;;;2405507;56;20116;-74
2022/03/17 06:27:36;;;;;;;;;;;9.50;70.00;;;;;;2405933;53;20104;-75
2022/03/17 06:30:04;;;;;;;;;;;9.50;70.10;;;;;;2405448;56;20069;-76
2022/03/17 06:32:31;;;;;;;;;;;9.50;70.20;;;;;;2404953;56;20113;-75
2022/03/17 06:34:57;;;;;;;;;;;9.50;70.10;;;;;;2405834;56;20323;-75
2022/03/17 06:37:24;;;;;;;;;;;9.50;70.10;;;;;;2405823;56;20080;-75
2022/03/17 06:39:50;;;;;;;;;;;9.50;70.10;;;;;;2405632;56;20151;-75
2022/03/17 06:42:17;;;;;;;;;;;9.40;70.20;;;;;;2405911;56;20450;-75
2022/03/17 06:44:43;;;;;;;;;;;9.50;70.40;;;;;;2405839;56;20077;-75
2022/03/17 06:47:10;;;;;;;;;;;9.50;70.10;;;;;;2405445;56;20073;-75
2022/03/17 06:49:36;;;;;;;;;;;9.50;70.10;;;;;;2403481;56;20057;-75
2022/03/17 06:52:03;;;;;;;;;;;9.50;70.20;;;;;;2405848;56;20131;-76
2022/03/17 06:54:29;;;;;;;;;;;9.50;70.10;;;;;;2406057;56;20072;-76
2022/03/17 06:56:56;;;;;;;;;;;9.50;69.90;;;;;;2405729;56;20069;-75
2022/03/17 06:59:22;;;;;;;;;;;9.50;70.00;;;;;;2412287;52;20068;-75
2022/03/17 07:01:49;;;;;;;;;;;9.60;70.10;;;;;;2405478;56;20052;-75
2022/03/17 07:04:15;;;;;;;;;;;9.60;70.10;;;;;;2405501;56;20060;-75
2022/03/17 07:06:42;;;;;;;;;;;9.60;69.90;;;;;;2403787;56;20311;-76
2022/03/17 07:09:08;;;;;;;;;;;9.60;69.90;;;;;;2405567;56;20085;-75
2022/03/17 07:11:35;;;;;;;;;;;9.60;69.30;;;;;;2405859;56;20434;-75
2022/03/17 07:14:01;;;;;;;;;;;9.70;69.50;;;;;;2406081;56;20068;-75
2022/03/17 07:16:27;;;;;;;;;;;9.70;69.40;;;;;;2405822;56;20124;-76
2022/03/17 07:18:54;;;;;;;;;;;9.70;69.30;;;;;;2406029;56;20060;-75
2022/03/17 07:21:21;;;;;;;;;;;9.80;69.40;;;;;;2405543;56;20128;-76
2022/03/17 07:23:47;;;;;;;;;;;9.80;69.00;;;;;;2403676;56;20120;-75
2022/03/17 07:26:13;;;;;;;;;;;9.90;69.10;;;;;;2405114;56;20125;-75
2022/03/17 07:28:40;;;;;;;;;;;9.90;69.00;;;;;;2405683;56;20104;-75
2022/03/17 07:31:06;;;;;;;;;;;9.90;68.90;;;;;;2405676;56;20143;-75
2022/03/17 07:33:33;;;;;;;;;;;9.90;69.00;;;;;;2405609;56;20127;-75
2022/03/17 07:35:59;;;;;;;;;;;9.90;69.10;;;;;;2405975;56;20144;-76
2022/03/17 07:38:26;;;;;;;;;;;9.90;69.10;;;;;;2405231;52;20060;-75
2022/03/17 07:40:52;;;;;;;;;;;9.90;69.10;;;;;;2427096;52;20355;-75
2022/03/17 07:43:19;;;;;;;;;;;10.00;69.10;;;;;;2405791;56;20332;-75
2022/03/17 07:45:46;;;;;;;;;;;10.00;69.00;;;;;;2405686;56;20084;-75
2022/03/17 07:48:13;;;;;;;;;;;10.00;69.10;;;;;;2405882;56;20060;-75
2022/03/17 07:50:40;;;;;;;;;;;10.00;69.00;;;;;;2405143;56;20060;-75
2022/03/17 07:53:06;;;;;;;;;;;10.10;68.80;;;;;;2405463;56;20143;-75
2022/03/17 07:55:33;;;;;;;;;;;10.10;69.50;;;;;;2405868;56;20112;-76
2022/03/17 07:58:00;;;;;;;;;;;10.10;68.70;;;;;;2405612;56;20115;-75
2022/03/17 08:00:27;;;;;;;;;;;10.10;68.80;;;;;;2405554;56;20076;-75
2022/03/17 08:02:54;;;;;;;;;;;10.10;68.50;;;;;;2405608;56;20080;-76
2022/03/17 08:05:21;;;;;;;;;;;10.20;68.50;;;;;;2433941;52;20156;-76
2022/03/17 08:07:48;;;;;;;;;;;10.20;68.50;;;;;;2405598;56;20258;-76
2022/03/17 08:10:15;;;;;;;;;;;10.30;68.50;;;;;;2405083;56;20077;-76
2022/03/17 08:12:42;;;;;;;;;;;10.30;68.50;;;;;;2460761;52;20076;-76
2022/03/17 08:15:10;;;;;;;;;;;10.20;68.40;;;;;;2405821;56;20064;-75
2022/03/17 08:17:36;;;;;;;;;;;10.30;68.50;;;;;;2405986;56;20159;-75
2022/03/17 08:20:05;;;;;;;;;;;10.30;68.30;;;;;;2405679;56;20125;-76
2022/03/17 08:22:32;;;;;;;;;;;10.30;68.20;;;;;;2405955;56;20117;-75
2022/03/17 08:24:58;;;;;;;;;;;10.40;68.20;;;;;;2405396;56;20299;-76
2022/03/17 08:27:24;;;;;;;;;;;10.40;68.10;;;;;;2419319;54;20053;-75
2022/03/17 08:29:51;;;;;;;;;;;10.40;68.10;;;;;;2268983;59;20121;-76
2022/03/17 08:32:21;;;;;;;;;;;10.40;68.10;;;;;;2269069;59;20085;-75
2022/03/17 08:34:47;;;;;;;;;;;10.50;68.10;;;;;;2267525;59;20081;-76
2022/03/17 08:37:14;;;;;;;;;;;10.50;68.10;;;;;;2269194;59;20093;-75
2022/03/17 08:39:41;;;;;;;;;;;10.50;67.90;;;;;;2268868;59;20081;-76
2022/03/17 08:42:08;;;;;;;;;;;10.60;68.10;;;;;;2267550;59;20077;-76
2022/03/17 08:44:34;;;;;;;;;;;10.60;67.70;;;;;;2268429;59;20070;-76
2022/03/17 08:49:45;;;;;;;;;;;10.60;67.30;;;;;;2268934;59;20420;-75
2022/03/17 08:52:12;;;;;;;;;;;10.70;67.40;;;;;;2268679;59;20065;-76
2022/03/17 08:54:38;;;;;;;;;;;10.70;67.40;;;;;;2269453;59;20073;-77
2022/03/17 08:57:05;;;;;;;;;;;10.80;67.70;;;;;;2269197;59;20084;-75
2022/03/17 08:59:32;;;;;;;;;;;10.70;67.40;;;;;;2268652;59;20106;-76
2022/03/17 09:01:59;;;;;;;;;;;10.70;67.40;;;;;;2269378;59;20136;-76
2022/03/17 09:04:27;;;;;;;;;;;10.80;67.50;;;;;;2269015;59;20125;-76
2022/03/17 09:06:59;;;;;;;;;;;10.90;67.20;;;;;;2269419;59;20142;-75
2022/03/17 09:09:26;;;;;;;;;;;10.80;67.00;;;;;;2268517;59;20144;-75
2022/03/17 09:11:52;;;;;;;;;;;10.90;67.70;;;;;;2268991;59;20093;-75
2022/03/17 09:14:19;;;;;;;;;;;10.90;66.70;;;;;;2268657;59;20117;-75
2022/03/17 09:16:46;;;;;;;;;;;11.00;66.60;;;;;;2269088;59;20073;-75
2022/03/17 09:19:12;;;;;;;;;;;11.00;66.60;;;;;;2269037;59;20152;-75
2022/03/17 09:21:39;;;;;;;;;;;11.10;66.60;;;;;;2269075;59;20085;-76
2022/03/17 09:24:06;;;;;;;;;;;11.10;66.10;;;;;;2268236;59;20301;-75
2022/03/17 09:26:33;;;;;;;;;;;11.10;65.60;;;;;;2498535;54;20074;-75
2022/03/17 09:29:00;;;;;;;;;;;11.20;65.50;;;;;;2267922;59;20089;-75
2022/03/17 09:31:26;;;;;;;;;;;11.20;65.30;;;;;;2268862;59;20069;-75
2022/03/17 09:33:53;;;;;;;;;;;11.20;65.10;;;;;;2268373;59;20120;-75
2022/03/17 09:36:19;;;;;;;;;;;11.20;64.90;;;;;;2268982;59;20144;-75
2022/03/17 09:39:39;;;;;;;;;;;11.20;64.90;;;;;;2269016;59;20364;-75
2022/03/17 09:42:06;;;;;;;;;;;11.30;65.00;;;;;;2268612;59;20082;-75
2022/03/17 09:44:32;;;;;;;;;;;11.30;65.00;;;;;;2268970;59;20061;-75
2022/03/17 09:46:59;;;;;;;;;;;11.30;64.90;;;;;;2269255;59;20058;-75
2022/03/17 09:49:26;;;;;;;;;;;11.40;65.10;;;;;;2268495;59;20089;-75
2022/03/17 09:51:54;;;;;;;;;;;11.40;65.10;;;;;;2267524;59;20324;-75
2022/03/17 09:54:21;;;;;;;;;;;11.40;65.00;;;;;;2268177;59;20128;-75
2022/03/17 09:56:47;;;;;;;;;;;11.40;65.40;;;;;;2268329;59;20101;-75
2022/03/17 09:59:14;;;;;;;;;;;11.40;65.20;;;;;;2268211;59;20482;-75
2022/03/17 10:01:40;;;;;;;;;;;11.40;65.00;;;;;;2266825;59;20106;-76
2022/03/17 10:04:07;;;;;;;;;;;11.40;65.90;;;;;;2498182;55;20145;-76
2022/03/17 10:06:34;;;;;;;;;;;11.40;65.10;;;;;;2268152;59;20077;-76
2022/03/17 10:09:01;;;;;;;;;;;11.40;65.10;;;;;;2266575;59;20101;-76
2022/03/17 10:11:29;;;;;;;;;;;11.40;65.30;;;;;;2267677;59;20188;-75
2022/03/17 10:13:56;;;;;;;;;;;11.40;65.80;;;;;;2267297;59;20144;-75
2022/03/17 10:16:24;;;;;;;;;;;11.30;65.90;;;;;;2268492;59;20280;-75
2022/03/17 10:18:57;;;;;;;;;;;11.30;65.90;;;;;;2267655;59;20073;-75
2022/03/17 10:21:24;;;;;;;;;;;11.30;65.90;;;;;;2268489;59;20069;-76
2022/03/17 10:23:52;;;;;;;;;;;11.30;66.10;;;;;;2268375;59;20121;-75
2022/03/17 10:29:12;;;;;;;;;;;11.40;66.30;;;;;;2357836;57;20291;-76
2022/03/17 10:31:52;;;;;;;;;;;11.30;66.40;;;;;;2617415;52;20337;-76
2022/03/17 10:34:19;;;;;;;;;;;11.30;66.80;;;;;;2597595;53;20086;-75
2022/03/17 10:36:46;;;;;;;;;;;11.30;66.70;;;;;;2597562;53;20047;-75
2022/03/17 10:39:13;;;;;;;;;;;11.30;67.00;;;;;;2349379;57;20067;-75
2022/03/17 10:41:41;;;;;;;;;;;11.30;67.20;;;;;;2348962;57;20050;-75
2022/03/17 10:46:55;;;;;;;;;;;11.30;67.20;;;;;;2358742;57;20049;-73
2022/03/17 10:49:21;;;;;;;;;;;11.30;67.20;;;;;;2377580;56;20082;-76
2022/03/17 10:51:52;;;;;;;;;;;11.30;67.20;;;;;;2364580;56;20145;-75
2022/03/17 10:54:19;;;;;;;;;;;11.30;67.30;;;;;;2348761;57;20170;-74
2022/03/17 10:56:57;;;;;;;;;;;11.30;67.20;;;;;;2349418;57;20891;-75
2022/03/17 10:59:35;;;;;;;;;;;11.30;67.60;;;;;;2346994;57;20067;-76
2022/03/17 11:02:03;;;;;;;;;;;11.30;67.60;;;;;;2349818;57;20122;-75
2022/03/17 11:04:30;;;;;;;;;;;11.30;67.70;;;;;;2349675;57;20087;-75
2022/03/17 11:09:32;;;;;;;;;;;11.30;67.50;;;;;;2356438;57;20053;-74
2022/03/17 11:12:00;;;;;;;;;;;11.30;67.70;;;;;;2392068;56;20120;-74
2022/03/17 11:14:27;;;;;;;;;;;11.30;67.90;;;;;;2406197;56;20181;-74
2022/03/17 11:16:55;;;;;;;;;;;11.20;68.40;;;;;;2664475;52;20192;-77
2022/03/17 11:19:22;;;;;;;;;;;11.20;67.80;;;;;;2405535;56;20068;-76
2022/03/17 11:22:01;;;;;;;;;;;11.20;68.00;;;;;;2405762;56;20076;-76
2022/03/17 11:24:27;;;;;;;;;;;11.20;68.50;;;;;;2406262;56;20080;-76
2022/03/17 11:27:08;;;;;;;;;;;11.20;67.90;;;;;;2406521;56;20143;-76
2022/03/17 11:29:38;;;;;;;;;;;11.20;68.00;;;;;;2406563;56;20053;-76
2022/03/17 11:32:08;;;;;;;;;;;11.20;67.80;;;;;;2406844;56;20065;-76
2022/03/17 11:34:38;;;;;;;;;;;11.20;68.00;;;;;;2405991;56;20136;-76
2022/03/17 11:37:15;;;;;;;;;;;11.20;68.00;;;;;;2405643;56;20080;-76
2022/03/17 11:39:49;;;;;;;;;;;11.20;68.70;;;;;;2404691;56;20076;-75
2022/03/17 11:42:35;;;;;;;;;;;11.20;68.50;;;;;;2406577;56;20068;-75
2022/03/17 11:45:03;;;;;;;;;;;11.10;69.20;;;;;;2406792;56;20072;-74
2022/03/17 11:47:36;;;;;;;;;;;11.10;69.30;;;;;;2406981;56;20080;-74
2022/03/17 11:50:22;;;;;;;;;;;11.10;70.60;;;;;;2406377;56;20117;-76
2022/03/17 11:52:50;;;;;;;;;;;11.00;71.60;;;;;;2406735;56;20073;-75
2022/03/17 11:55:33;;;;;;;;;;;11.00;72.30;;;;;;2406687;56;20105;-76
2022/03/17 11:58:33;;;;;;;;;;;10.90;72.90;;;;;;2407387;56;20068;-76
2022/03/17 12:01:04;;;;;;;;;;;10.90;72.60;;;;;;2390899;56;20538;-74
2022/03/17 12:03:32;;;;;;;;;;;10.90;70.90;;;;;;2407278;56;20064;-75
2022/03/17 12:06:07;;;;;;;;;;;11.00;72.00;;;;;;2407127;56;20076;-74
2022/03/17 12:08:35;;;;;;;;;;;11.00;71.40;;;;;;2406506;56;20052;-74
2022/03/17 12:11:06;;;;;;;;;;;11.00;72.10;;;;;;2666416;52;20068;-75
2022/03/17 12:13:34;;;;;;;;;;;10.90;72.60;;;;;;2406536;56;20163;-74
2022/03/17 12:16:02;;;;;;;;;;;10.90;72.40;;;;;;2406013;56;20179;-74
2022/03/17 12:18:28;;;;;;;;;;;10.90;72.40;;;;;;2404106;56;20080;-74
2022/03/17 12:20:56;;;;;;;;;;;11.00;72.30;;;;;;2404550;56;20064;-74
2022/03/17 12:23:42;;;;;;;;;;;11.10;72.60;;;;;;2405278;56;20096;-75
2022/03/17 12:26:08;;;;;;;;;;;11.00;72.20;;;;;;2405183;56;20338;-75
2022/03/17 12:28:41;;;;;;;;;;;11.10;71.40;;;;;;2404884;56;20116;-75
2022/03/17 12:31:08;;;;;;;;;;;11.10;70.70;;;;;;2664851;52;20143;-74
2022/03/17 12:33:36;;;;;;;;;;;11.10;71.70;;;;;;2404915;56;20048;-75
2022/03/17 12:36:04;;;;;;;;;;;11.10;72.00;;;;;;2405117;56;20072;-74
2022/03/17 12:38:31;;;;;;;;;;;11.00;71.70;;;;;;2665227;52;20076;-76
2022/03/17 12:40:58;;;;;;;;;;;11.00;71.80;;;;;;2405036;56;20303;-74
2022/03/17 12:43:25;;;;;;;;;;;11.10;71.70;;;;;;2405180;56;20060;-76
2022/03/17 12:45:52;;;;;;;;;;;11.10;70.80;;;;;;2665003;52;20116;-75
2022/03/17 12:48:19;;;;;;;;;;;11.10;70.50;;;;;;2664443;52;20139;-74
2022/03/17 12:50:46;;;;;;;;;;;11.10;71.00;;;;;;2404732;56;20225;-76
2022/03/17 12:53:13;;;;;;;;;;;11.10;70.80;;;;;;2665874;52;20161;-75
2022/03/17 12:55:39;;;;;;;;;;;11.10;71.30;;;;;;2405631;56;20073;-74
2022/03/17 12:58:06;;;;;;;;;;;11.20;71.00;;;;;;2405794;56;20279;-76
2022/03/17 13:00:32;;;;;;;;;;;11.20;71.80;;;;;;2665662;52;20363;-76
2022/03/17 13:02:59;;;;;;;;;;;11.20;70.80;;;;;;2401903;56;20116;-73
2022/03/17 13:08:12;;;;;;;;;;;11.20;70.50;;;;;;2406285;56;20080;-77
2022/03/17 13:16:14;;;;;;;;;;;11.30;70.00;;;;;;2405871;56;20064;-77
2022/03/17 13:18:41;;;;;;;;;;;11.30;69.90;;;;;;2404697;56;20124;-75
2022/03/17 13:21:09;;;;;;;;;;;11.40;69.70;;;;;;2663813;52;20151;-76
2022/03/17 13:23:36;;;;;;;;;;;11.40;69.60;;;;;;2405484;56;20120;-74
2022/03/17 13:26:02;;;;;;;;;;;11.40;69.60;;;;;;2405350;56;20215;-74
2022/03/17 13:28:29;;;;;;;;;;;11.50;69.60;;;;;;2665661;52;20061;-75
2022/03/17 13:30:56;;;;;;;;;;;11.50;69.90;;;;;;2405057;56;20125;-76
2022/03/17 13:33:26;;;;;;;;;;;11.50;69.80;;;;;;2405722;56;20092;-75
2022/03/17 13:35:53;;;;;;;;;;;11.50;70.10;;;;;;2404109;56;20140;-75
2022/03/17 13:38:20;;;;;;;;;;;11.60;70.40;;;;;;2404352;56;20116;-75
2022/03/17 13:40:48;;;;;;;;;;;11.60;69.50;;;;;;2405066;56;20088;-74
2022/03/17 13:43:15;;;;;;;;;;;11.60;69.40;;;;;;2405431;56;20087;-74
2022/03/17 13:45:43;;;;;;;;;;;11.60;69.20;;;;;;2405699;56;20132;-75
2022/03/17 13:48:11;;;;;;;;;;;11.60;68.70;;;;;;2405454;56;20152;-75
2022/03/17 13:50:39;;;;;;;;;;;11.50;68.60;;;;;;2405118;56;20108;-74
2022/03/17 13:53:06;;;;;;;;;;;11.50;68.70;;;;;;2402953;56;20194;-74
2022/03/17 13:55:35;;;;;;;;;;;11.50;68.40;;;;;;2665388;52;20068;-75
2022/03/17 13:58:27;;;;;;;;;;;11.40;68.20;;;;;;2405866;56;20065;-75
2022/03/17 14:00:55;;;;;;;;;;;11.40;68.30;;;;;;2659415;52;20132;-75
2022/03/17 14:03:22;;;;;;;;;;;11.30;68.40;;;;;;2405876;56;20065;-75
2022/03/17 14:05:59;;;;;;;;;;;11.30;68.50;;;;;;2405336;56;20080;-74
2022/03/17 14:08:25;;;;;;;;;;;11.20;68.80;;;;;;2403841;56;20077;-73
2022/03/17 14:10:52;;;;;;;;;;;11.20;69.20;;;;;;2403485;56;20073;-76
2022/03/17 14:13:20;;;;;;;;;;;11.10;69.30;;;;;;2405496;56;20080;-74
2022/03/17 14:15:49;;;;;;;;;;;11.00;69.40;;;;;;2405602;56;20073;-74
2022/03/17 14:18:15;;;;;;;;;;;11.10;69.70;;;;;;2405681;56;20335;-74
2022/03/17 14:20:42;;;;;;;;;;;11.10;69.70;;;;;;2405054;56;20068;-73
2022/03/17 14:28:28;;;;;;;;;;;11.10;70.30;;;;;;2428020;51;20076;-75
2022/03/17 14:30:55;;;;;;;;;;;11.10;70.00;;;;;;2417807;55;20163;-75
2022/03/17 14:33:21;;;;;;;;;;;11.10;69.80;;;;;;2393193;56;20335;-75
2022/03/17 14:35:52;;;;;;;;;;;11.20;69.90;;;;;;2396534;52;20155;-75
2022/03/17 14:38:20;;;;;;;;;;;11.20;70.00;;;;;;2393182;56;20275;-75
2022/03/17 14:40:47;;;;;;;;;;;11.20;69.70;;;;;;2392510;56;20371;-75
2022/03/17 14:43:14;;;;;;;;;;;11.20;69.20;;;;;;2392622;56;20082;-75
2022/03/17 14:45:41;;;;;;;;;;;11.20;69.10;;;;;;2392047;56;20076;-75
2022/03/17 14:48:07;;;;;;;;;;;11.20;68.60;;;;;;2393202;56;20129;-75
2022/03/17 14:50:33;;;;;;;;;;;11.20;68.80;;;;;;2392842;56;20132;-75
2022/03/17 14:53:00;;;;;;;;;;;11.20;68.80;;;;;;2393370;53;20061;-76
2022/03/17 14:55:26;;;;;;;;;;;11.20;68.50;;;;;;2430069;52;20128;-75
2022/03/17 14:57:54;;;;;;;;;;;11.20;68.10;;;;;;2393509;56;20081;-76
2022/03/17 15:00:20;;;;;;;;;;;11.20;68.10;;;;;;2434624;52;20245;-76
2022/03/17 15:02:47;;;;;;;;;;;11.20;67.90;;;;;;2409690;52;20125;-75
2022/03/17 15:05:13;;;;;;;;;;;11.20;68.00;;;;;;2393658;56;20123;-76
2022/03/17 15:07:42;;;;;;;;;;;11.20;67.70;;;;;;2393696;56;20053;-76